sensor_id;sensor_type;location;lat;lon;timestamp;temperature;humidity
19039;DHT22;9652;49.014;12.052;2024-03-08T00:01:01;5.20;61.40
19039;DHT22;9652;49.014;12.052;2024-03-08T00:03:28;5.30;61.50
19039;DHT22;9652;49.014;12.052;2024-03-08T00:05:56;5.20;61.50
19039;DHT22;9652;49.014;12.052;2024-03-08T00:08:23;5.20;61.60
19039;DHT22;9652;49.014;12.052;2024-03-08T00:10:50;5.20;61.60
19039;DHT22;9652;49.014;12.052;2024-03-08T00:13:17;5.10;61.60
19039;DHT22;9652;49.014;12.052;2024-03-08T00:15:47;5.10;61.60
19039;DHT22;9652;49.014;12.052;2024-03-08T00:18:14;5.10;61.70
19039;DHT22;9652;49.014;12.052;2024-03-08T00:20:41;5.10;61.60
19039;DHT22;9652;49.014;12.052;2024-03-08T00:23:09;5.10;61.80
19039;DHT22;9652;49.014;12.052;2024-03-08T00:25:37;5.10;61.80
19039;DHT22;9652;49.014;12.052;2024-03-08T00:28:04;5.10;61.80
19039;DHT22;9652;49.014;12.052;2024-03-08T00:30:32;5.00;61.80
19039;DHT22;9652;49.014;12.052;2024-03-08T00:33:00;5.00;61.80
19039;DHT22;9652;49.014;12.052;2024-03-08T00:35:27;5.00;62.00
19039;DHT22;9652;49.014;12.052;2024-03-08T00:37:54;5.00;62.00
19039;DHT22;9652;49.014;12.052;2024-03-08T00:40:22;5.00;62.10
19039;DHT22;9652;49.014;12.052;2024-03-08T00:42:49;5.00;62.10
19039;DHT22;9652;49.014;12.052;2024-03-08T00:45:16;4.90;62.00
19039;DHT22;9652;49.014;12.052;2024-03-08T00:47:43;4.90;62.00
19039;DHT22;9652;49.014;12.052;2024-03-08T00:50:12;4.90;62.10
19039;DHT22;9652;49.014;12.052;2024-03-08T00:52:39;4.90;62.30
19039;DHT22;9652;49.014;12.052;2024-03-08T00:55:07;4.90;62.30
19039;DHT22;9652;49.014;12.052;2024-03-08T00:57:36;4.90;62.50
19039;DHT22;9652;49.014;12.052;2024-03-08T01:00:05;4.80;62.50
19039;DHT22;9652;49.014;12.052;2024-03-08T01:02:37;4.80;62.60
19039;DHT22;9652;49.014;12.052;2024-03-08T01:05:05;4.80;62.60
19039;DHT22;9652;49.014;12.052;2024-03-08T01:07:34;4.80;62.70
19039;DHT22;9652;49.014;12.052;2024-03-08T01:10:02;4.80;63.00
19039;DHT22;9652;49.014;12.052;2024-03-08T01:12:29;4.80;63.00
19039;DHT22;9652;49.014;12.052;2024-03-08T01:14:56;4.90;63.10
19039;DHT22;9652;49.014;12.052;2024-03-08T01:17:24;4.80;62.90
19039;DHT22;9652;49.014;12.052;2024-03-08T01:19:51;4.90;62.90
19039;DHT22;9652;49.014;12.052;2024-03-08T01:22:19;4.80;62.70
19039;DHT22;9652;49.014;12.052;2024-03-08T01:24:47;4.80;62.70
19039;DHT22;9652;49.014;12.052;2024-03-08T01:27:14;5.10;63.00
19039;DHT22;9652;49.014;12.052;2024-03-08T01:29:41;4.80;62.70
19039;DHT22;9652;49.014;12.052;2024-03-08T01:32:09;4.80;62.70
19039;DHT22;9652;49.014;12.052;2024-03-08T01:34:36;4.80;62.70
19039;DHT22;9652;49.014;12.052;2024-03-08T01:37:03;4.80;62.70
19039;DHT22;9652;49.014;12.052;2024-03-08T01:39:30;4.80;62.70
19039;DHT22;9652;49.014;12.052;2024-03-08T01:41:59;4.70;62.70
19039;DHT22;9652;49.014;12.052;2024-03-08T01:44:26;4.70;62.70
19039;DHT22;9652;49.014;12.052;2024-03-08T01:46:53;4.90;63.00
19039;DHT22;9652;49.014;12.052;2024-03-08T01:49:22;4.70;62.90
19039;DHT22;9652;49.014;12.052;2024-03-08T01:51:51;4.60;62.80
19039;DHT22;9652;49.014;12.052;2024-03-08T01:54:19;4.60;62.90
19039;DHT22;9652;49.014;12.052;2024-03-08T01:56:47;4.60;62.90
19039;DHT22;9652;49.014;12.052;2024-03-08T01:59:16;4.60;62.90
19039;DHT22;9652;49.014;12.052;2024-03-08T02:01:44;4.60;62.90
19039;DHT22;9652;49.014;12.052;2024-03-08T02:04:11;4.60;62.90
19039;DHT22;9652;49.014;12.052;2024-03-08T02:06:38;4.60;62.90
19039;DHT22;9652;49.014;12.052;2024-03-08T02:09:05;4.60;63.00
19039;DHT22;9652;49.014;12.052;2024-03-08T02:11:33;4.50;63.00
19039;DHT22;9652;49.014;12.052;2024-03-08T02:14:01;4.50;63.90
19039;DHT22;9652;49.014;12.052;2024-03-08T02:16:31;4.50;63.20
19039;DHT22;9652;49.014;12.052;2024-03-08T02:18:58;4.50;63.30
19039;DHT22;9652;49.014;12.052;2024-03-08T02:21:27;4.50;63.30
19039;DHT22;9652;49.014;12.052;2024-03-08T02:23:55;4.50;63.40
19039;DHT22;9652;49.014;12.052;2024-03-08T02:26:22;4.50;63.40
19039;DHT22;9652;49.014;12.052;2024-03-08T02:28:49;4.50;63.40
19039;DHT22;9652;49.014;12.052;2024-03-08T02:31:17;4.40;63.40
19039;DHT22;9652;49.014;12.052;2024-03-08T02:33:44;4.40;63.40
19039;DHT22;9652;49.014;12.052;2024-03-08T02:36:13;4.40;63.40
19039;DHT22;9652;49.014;12.052;2024-03-08T02:38:41;4.40;63.40
19039;DHT22;9652;49.014;12.052;2024-03-08T02:41:08;4.40;63.40
19039;DHT22;9652;49.014;12.052;2024-03-08T02:43:35;4.40;63.40
19039;DHT22;9652;49.014;12.052;2024-03-08T02:46:03;4.40;63.40
19039;DHT22;9652;49.014;12.052;2024-03-08T02:48:31;4.40;63.50
19039;DHT22;9652;49.014;12.052;2024-03-08T02:50:58;4.40;63.50
19039;DHT22;9652;49.014;12.052;2024-03-08T02:53:27;4.40;63.60
19039;DHT22;9652;49.014;12.052;2024-03-08T02:55:56;4.40;63.60
19039;DHT22;9652;49.014;12.052;2024-03-08T02:58:23;4.40;63.60
19039;DHT22;9652;49.014;12.052;2024-03-08T03:00:50;4.30;63.50
19039;DHT22;9652;49.014;12.052;2024-03-08T03:03:17;4.40;63.60
19039;DHT22;9652;49.014;12.052;2024-03-08T03:05:44;4.40;63.70
19039;DHT22;9652;49.014;12.052;2024-03-08T03:08:11;4.40;63.70
19039;DHT22;9652;49.014;12.052;2024-03-08T03:10:38;4.30;63.70
19039;DHT22;9652;49.014;12.052;2024-03-08T03:13:07;4.30;63.70
19039;DHT22;9652;49.014;12.052;2024-03-08T03:15:34;4.30;63.80
19039;DHT22;9652;49.014;12.052;2024-03-08T03:18:02;4.30;63.80
19039;DHT22;9652;49.014;12.052;2024-03-08T03:20:29;4.30;63.90
19039;DHT22;9652;49.014;12.052;2024-03-08T03:22:59;4.30;63.90
19039;DHT22;9652;49.014;12.052;2024-03-08T03:25:28;4.30;64.20
19039;DHT22;9652;49.014;12.052;2024-03-08T03:27:59;4.20;64.40
19039;DHT22;9652;49.014;12.052;2024-03-08T03:30:28;4.30;64.70
19039;DHT22;9652;49.014;12.052;2024-03-08T03:32:59;4.30;64.70
19039;DHT22;9652;49.014;12.052;2024-03-08T03:35:28;4.30;64.60
19039;DHT22;9652;49.014;12.052;2024-03-08T03:37:55;4.30;64.40
19039;DHT22;9652;49.014;12.052;2024-03-08T03:40:32;4.30;64.30
19039;DHT22;9652;49.014;12.052;2024-03-08T03:42:59;4.40;64.30
19039;DHT22;9652;49.014;12.052;2024-03-08T03:45:29;4.30;64.20
19039;DHT22;9652;49.014;12.052;2024-03-08T03:48:01;4.30;64.30
19039;DHT22;9652;49.014;12.052;2024-03-08T03:50:29;4.30;64.10
19039;DHT22;9652;49.014;12.052;2024-03-08T03:52:56;4.30;64.10
19039;DHT22;9652;49.014;12.052;2024-03-08T03:55:23;4.30;64.10
19039;DHT22;9652;49.014;12.052;2024-03-08T03:57:51;4.30;64.20
19039;DHT22;9652;49.014;12.052;2024-03-08T04:00:18;4.20;64.10
19039;DHT22;9652;49.014;12.052;2024-03-08T04:02:47;4.20;64.10
19039;DHT22;9652;49.014;12.052;2024-03-08T04:05:14;4.20;64.10
19039;DHT22;9652;49.014;12.052;2024-03-08T04:07:41;4.20;64.10
19039;DHT22;9652;49.014;12.052;2024-03-08T04:10:11;4.20;64.10
19039;DHT22;9652;49.014;12.052;2024-03-08T04:12:38;4.20;64.20
19039;DHT22;9652;49.014;12.052;2024-03-08T04:15:06;4.20;64.10
19039;DHT22;9652;49.014;12.052;2024-03-08T04:17:34;4.20;64.10
19039;DHT22;9652;49.014;12.052;2024-03-08T04:20:05;4.20;64.10
19039;DHT22;9652;49.014;12.052;2024-03-08T04:22:35;4.10;64.20
19039;DHT22;9652;49.014;12.052;2024-03-08T04:25:03;4.20;64.20
19039;DHT22;9652;49.014;12.052;2024-03-08T04:27:31;4.10;64.20
19039;DHT22;9652;49.014;12.052;2024-03-08T04:29:59;4.10;64.30
19039;DHT22;9652;49.014;12.052;2024-03-08T04:32:27;4.10;64.30
19039;DHT22;9652;49.014;12.052;2024-03-08T04:34:55;4.10;64.20
19039;DHT22;9652;49.014;12.052;2024-03-08T04:37:23;4.10;64.20
19039;DHT22;9652;49.014;12.052;2024-03-08T04:39:51;4.10;64.30
19039;DHT22;9652;49.014;12.052;2024-03-08T04:42:18;4.10;64.30
19039;DHT22;9652;49.014;12.052;2024-03-08T04:44:45;4.30;64.40
19039;DHT22;9652;49.014;12.052;2024-03-08T04:47:12;4.20;64.40
19039;DHT22;9652;49.014;12.052;2024-03-08T04:49:39;4.10;64.40
19039;DHT22;9652;49.014;12.052;2024-03-08T04:52:07;4.10;64.40
19039;DHT22;9652;49.014;12.052;2024-03-08T04:54:35;4.10;64.40
19039;DHT22;9652;49.014;12.052;2024-03-08T04:57:02;4.10;64.50
19039;DHT22;9652;49.014;12.052;2024-03-08T04:59:30;4.10;64.40
19039;DHT22;9652;49.014;12.052;2024-03-08T05:01:57;4.10;65.30
19039;DHT22;9652;49.014;12.052;2024-03-08T05:04:24;4.10;64.40
19039;DHT22;9652;49.014;12.052;2024-03-08T05:06:51;4.10;64.50
19039;DHT22;9652;49.014;12.052;2024-03-08T05:09:19;4.00;64.40
19039;DHT22;9652;49.014;12.052;2024-03-08T05:11:47;4.00;64.50
19039;DHT22;9652;49.014;12.052;2024-03-08T05:14:15;4.00;64.60
19039;DHT22;9652;49.014;12.052;2024-03-08T05:16:46;4.00;64.60
19039;DHT22;9652;49.014;12.052;2024-03-08T05:19:14;4.00;64.60
19039;DHT22;9652;49.014;12.052;2024-03-08T05:21:43;4.00;64.60
19039;DHT22;9652;49.014;12.052;2024-03-08T05:24:10;4.00;64.60
19039;DHT22;9652;49.014;12.052;2024-03-08T05:26:38;4.00;64.60
19039;DHT22;9652;49.014;12.052;2024-03-08T05:29:07;4.00;64.70
19039;DHT22;9652;49.014;12.052;2024-03-08T05:31:42;4.00;64.70
19039;DHT22;9652;49.014;12.052;2024-03-08T05:34:12;3.90;64.80
19039;DHT22;9652;49.014;12.052;2024-03-08T05:36:40;4.00;64.80
19039;DHT22;9652;49.014;12.052;2024-03-08T05:39:10;3.90;64.70
19039;DHT22;9652;49.014;12.052;2024-03-08T05:41:37;3.90;64.80
19039;DHT22;9652;49.014;12.052;2024-03-08T05:44:07;3.90;65.70
19039;DHT22;9652;49.014;12.052;2024-03-08T05:46:35;3.90;64.90
19039;DHT22;9652;49.014;12.052;2024-03-08T05:49:02;3.90;64.80
19039;DHT22;9652;49.014;12.052;2024-03-08T05:51:31;3.90;64.90
19039;DHT22;9652;49.014;12.052;2024-03-08T05:54:00;3.90;64.90
19039;DHT22;9652;49.014;12.052;2024-03-08T05:56:28;3.90;65.00
19039;DHT22;9652;49.014;12.052;2024-03-08T05:58:56;3.90;65.00
19039;DHT22;9652;49.014;12.052;2024-03-08T06:01:25;3.90;64.90
19039;DHT22;9652;49.014;12.052;2024-03-08T06:03:52;3.90;65.00
19039;DHT22;9652;49.014;12.052;2024-03-08T06:06:21;3.90;65.00
19039;DHT22;9652;49.014;12.052;2024-03-08T06:08:49;3.90;65.20
19039;DHT22;9652;49.014;12.052;2024-03-08T06:11:17;3.90;65.20
19039;DHT22;9652;49.014;12.052;2024-03-08T06:13:46;3.90;65.40
19039;DHT22;9652;49.014;12.052;2024-03-08T06:16:13;3.90;65.40
19039;DHT22;9652;49.014;12.052;2024-03-08T06:18:42;3.90;65.50
19039;DHT22;9652;49.014;12.052;2024-03-08T06:21:09;3.90;65.60
19039;DHT22;9652;49.014;12.052;2024-03-08T06:23:37;3.90;65.60
19039;DHT22;9652;49.014;12.052;2024-03-08T06:26:05;4.00;65.70
19039;DHT22;9652;49.014;12.052;2024-03-08T06:28:32;4.00;65.80
19039;DHT22;9652;49.014;12.052;2024-03-08T06:31:00;4.00;65.90
19039;DHT22;9652;49.014;12.052;2024-03-08T06:33:28;4.00;66.00
19039;DHT22;9652;49.014;12.052;2024-03-08T06:35:59;4.00;66.00
19039;DHT22;9652;49.014;12.052;2024-03-08T06:38:26;4.10;66.20
19039;DHT22;9652;49.014;12.052;2024-03-08T06:40:53;4.10;66.20
19039;DHT22;9652;49.014;12.052;2024-03-08T06:43:20;4.30;66.40
19039;DHT22;9652;49.014;12.052;2024-03-08T06:45:48;4.10;66.30
19039;DHT22;9652;49.014;12.052;2024-03-08T06:48:15;4.20;66.50
19039;DHT22;9652;49.014;12.052;2024-03-08T06:50:43;4.20;66.50
19039;DHT22;9652;49.014;12.052;2024-03-08T06:53:12;4.30;66.60
19039;DHT22;9652;49.014;12.052;2024-03-08T06:55:40;4.30;66.60
19039;DHT22;9652;49.014;12.052;2024-03-08T06:58:07;4.40;66.70
19039;DHT22;9652;49.014;12.052;2024-03-08T07:00:36;4.40;66.70
19039;DHT22;9652;49.014;12.052;2024-03-08T07:03:03;4.50;66.80
19039;DHT22;9652;49.014;12.052;2024-03-08T07:05:37;4.60;66.90
19039;DHT22;9652;49.014;12.052;2024-03-08T07:08:06;4.70;67.00
19039;DHT22;9652;49.014;12.052;2024-03-08T07:10:34;4.70;66.90
19039;DHT22;9652;49.014;12.052;2024-03-08T07:13:03;4.80;67.10
19039;DHT22;9652;49.014;12.052;2024-03-08T07:15:30;4.90;67.10
19039;DHT22;9652;49.014;12.052;2024-03-08T07:17:58;5.00;67.10
19039;DHT22;9652;49.014;12.052;2024-03-08T07:20:25;5.00;67.10
19039;DHT22;9652;49.014;12.052;2024-03-08T07:22:54;5.10;67.10
19039;DHT22;9652;49.014;12.052;2024-03-08T07:25:21;5.20;67.20
19039;DHT22;9652;49.014;12.052;2024-03-08T07:27:51;5.30;67.20
19039;DHT22;9652;49.014;12.052;2024-03-08T07:30:19;5.40;67.40
19039;DHT22;9652;49.014;12.052;2024-03-08T07:33:03;5.40;67.20
19039;DHT22;9652;49.014;12.052;2024-03-08T07:35:32;5.50;67.20
19039;DHT22;9652;49.014;12.052;2024-03-08T07:38:03;5.70;67.30
19039;DHT22;9652;49.014;12.052;2024-03-08T07:40:31;5.70;67.20
19039;DHT22;9652;49.014;12.052;2024-03-08T07:43:00;5.80;67.20
19039;DHT22;9652;49.014;12.052;2024-03-08T07:45:28;5.90;67.20
19039;DHT22;9652;49.014;12.052;2024-03-08T07:47:56;6.00;67.10
19039;DHT22;9652;49.014;12.052;2024-03-08T07:50:23;6.10;67.10
19039;DHT22;9652;49.014;12.052;2024-03-08T07:52:50;6.20;67.20
19039;DHT22;9652;49.014;12.052;2024-03-08T07:55:17;6.30;67.00
19039;DHT22;9652;49.014;12.052;2024-03-08T07:57:45;6.30;67.00
19039;DHT22;9652;49.014;12.052;2024-03-08T08:00:16;6.40;66.90
19039;DHT22;9652;49.014;12.052;2024-03-08T08:02:44;6.50;66.70
19039;DHT22;9652;49.014;12.052;2024-03-08T08:05:12;6.70;66.70
19039;DHT22;9652;49.014;12.052;2024-03-08T08:07:39;6.70;66.50
19039;DHT22;9652;49.014;12.052;2024-03-08T08:10:09;6.80;66.40
19039;DHT22;9652;49.014;12.052;2024-03-08T08:12:42;7.00;66.40
19039;DHT22;9652;49.014;12.052;2024-03-08T08:15:09;7.00;66.10
19039;DHT22;9652;49.014;12.052;2024-03-08T08:17:38;7.10;66.10
19039;DHT22;9652;49.014;12.052;2024-03-08T08:20:06;7.20;65.90
19039;DHT22;9652;49.014;12.052;2024-03-08T08:22:34;7.30;65.80
19039;DHT22;9652;49.014;12.052;2024-03-08T08:25:01;7.40;65.80
19039;DHT22;9652;49.014;12.052;2024-03-08T08:27:28;7.50;65.70
19039;DHT22;9652;49.014;12.052;2024-03-08T08:29:55;7.60;65.60
19039;DHT22;9652;49.014;12.052;2024-03-08T08:32:22;7.70;65.50
19039;DHT22;9652;49.014;12.052;2024-03-08T08:34:51;7.80;65.50
19039;DHT22;9652;49.014;12.052;2024-03-08T08:37:18;7.90;65.20
19039;DHT22;9652;49.014;12.052;2024-03-08T08:39:45;8.00;65.20
19039;DHT22;9652;49.014;12.052;2024-03-08T08:42:12;8.10;65.20
19039;DHT22;9652;49.014;12.052;2024-03-08T08:44:39;8.20;65.00
19039;DHT22;9652;49.014;12.052;2024-03-08T08:47:06;8.30;64.80
19039;DHT22;9652;49.014;12.052;2024-03-08T08:49:33;8.40;64.80
19039;DHT22;9652;49.014;12.052;2024-03-08T08:52:02;8.50;64.70
19039;DHT22;9652;49.014;12.052;2024-03-08T08:54:29;8.60;64.50
19039;DHT22;9652;49.014;12.052;2024-03-08T08:56:56;8.80;64.40
19039;DHT22;9652;49.014;12.052;2024-03-08T08:59:24;8.70;64.00
19039;DHT22;9652;49.014;12.052;2024-03-08T09:01:52;8.80;63.90
19039;DHT22;9652;49.014;12.052;2024-03-08T09:04:19;8.90;63.90
19039;DHT22;9652;49.014;12.052;2024-03-08T09:06:48;8.90;63.70
19039;DHT22;9652;49.014;12.052;2024-03-08T09:09:17;9.10;63.70
19039;DHT22;9652;49.014;12.052;2024-03-08T09:11:44;9.10;63.40
19039;DHT22;9652;49.014;12.052;2024-03-08T09:14:11;9.10;63.40
19039;DHT22;9652;49.014;12.052;2024-03-08T09:16:39;9.20;63.20
19039;DHT22;9652;49.014;12.052;2024-03-08T09:19:07;9.30;63.20
19039;DHT22;9652;49.014;12.052;2024-03-08T09:21:36;9.40;63.00
19039;DHT22;9652;49.014;12.052;2024-03-08T09:24:05;9.40;62.90
19039;DHT22;9652;49.014;12.052;2024-03-08T09:26:34;9.50;62.80
19039;DHT22;9652;49.014;12.052;2024-03-08T09:29:02;9.60;62.80
19039;DHT22;9652;49.014;12.052;2024-03-08T09:31:31;9.60;62.70
19039;DHT22;9652;49.014;12.052;2024-03-08T09:33:58;9.70;62.50
19039;DHT22;9652;49.014;12.052;2024-03-08T09:36:25;9.80;62.50
19039;DHT22;9652;49.014;12.052;2024-03-08T09:38:53;9.90;62.30
19039;DHT22;9652;49.014;12.052;2024-03-08T09:41:20;9.90;62.20
19039;DHT22;9652;49.014;12.052;2024-03-08T09:43:49;10.00;62.00
19039;DHT22;9652;49.014;12.052;2024-03-08T09:46:16;10.10;61.60
19039;DHT22;9652;49.014;12.052;2024-03-08T09:48:45;10.10;61.50
19039;DHT22;9652;49.014;12.052;2024-03-08T09:51:13;10.20;61.10
19039;DHT22;9652;49.014;12.052;2024-03-08T09:53:41;10.20;61.20
19039;DHT22;9652;49.014;12.052;2024-03-08T09:56:08;10.30;61.20
19039;DHT22;9652;49.014;12.052;2024-03-08T09:58:37;10.30;61.00
19039;DHT22;9652;49.014;12.052;2024-03-08T10:01:20;10.40;60.90
19039;DHT22;9652;49.014;12.052;2024-03-08T10:03:48;10.40;60.60
19039;DHT22;9652;49.014;12.052;2024-03-08T10:06:16;10.50;60.80
19039;DHT22;9652;49.014;12.052;2024-03-08T10:08:44;10.60;60.70
19039;DHT22;9652;49.014;12.052;2024-03-08T10:11:11;10.60;60.60
19039;DHT22;9652;49.014;12.052;2024-03-08T10:13:39;10.70;60.50
19039;DHT22;9652;49.014;12.052;2024-03-08T10:16:07;10.80;60.40
19039;DHT22;9652;49.014;12.052;2024-03-08T10:18:36;10.80;60.00
19039;DHT22;9652;49.014;12.052;2024-03-08T10:21:04;10.90;60.00
19039;DHT22;9652;49.014;12.052;2024-03-08T10:23:33;11.00;60.00
19039;DHT22;9652;49.014;12.052;2024-03-08T10:26:13;11.00;60.90
19039;DHT22;9652;49.014;12.052;2024-03-08T10:28:41;11.10;59.50
19039;DHT22;9652;49.014;12.052;2024-03-08T10:31:09;11.20;59.70
19039;DHT22;9652;49.014;12.052;2024-03-08T10:33:38;11.30;59.70
19039;DHT22;9652;49.014;12.052;2024-03-08T10:36:07;11.30;59.60
19039;DHT22;9652;49.014;12.052;2024-03-08T10:38:36;11.40;59.60
19039;DHT22;9652;49.014;12.052;2024-03-08T10:41:06;11.50;59.40
19039;DHT22;9652;49.014;12.052;2024-03-08T10:43:45;11.60;59.30
19039;DHT22;9652;49.014;12.052;2024-03-08T10:46:30;11.70;59.00
19039;DHT22;9652;49.014;12.052;2024-03-08T10:49:04;11.70;59.00
19039;DHT22;9652;49.014;12.052;2024-03-08T10:51:35;11.80;59.00
19039;DHT22;9652;49.014;12.052;2024-03-08T10:54:04;11.90;59.20
19039;DHT22;9652;49.014;12.052;2024-03-08T10:56:33;11.90;59.00
19039;DHT22;9652;49.014;12.052;2024-03-08T10:59:00;12.00;59.00
19039;DHT22;9652;49.014;12.052;2024-03-08T11:01:30;12.10;59.00
19039;DHT22;9652;49.014;12.052;2024-03-08T11:03:57;12.20;58.90
19039;DHT22;9652;49.014;12.052;2024-03-08T11:06:42;12.30;58.90
19039;DHT22;9652;49.014;12.052;2024-03-08T11:09:27;12.30;58.40
19039;DHT22;9652;49.014;12.052;2024-03-08T11:14:59;12.50;58.00
19039;DHT22;9652;49.014;12.052;2024-03-08T11:17:40;12.50;58.50
19039;DHT22;9652;49.014;12.052;2024-03-08T11:20:13;12.60;58.00
19039;DHT22;9652;49.014;12.052;2024-03-08T11:22:48;12.60;58.20
19039;DHT22;9652;49.014;12.052;2024-03-08T11:25:36;12.70;57.80
19039;DHT22;9652;49.014;12.052;2024-03-08T11:28:11;12.70;57.40
19039;DHT22;9652;49.014;12.052;2024-03-08T11:30:47;12.70;58.00
19039;DHT22;9652;49.014;12.052;2024-03-08T11:33:50;12.80;57.80
19039;DHT22;9652;49.014;12.052;2024-03-08T11:36:21;12.90;58.00
19039;DHT22;9652;49.014;12.052;2024-03-08T11:38:51;12.90;57.90
19039;DHT22;9652;49.014;12.052;2024-03-08T11:41:22;12.90;57.70
19039;DHT22;9652;49.014;12.052;2024-03-08T11:44:01;13.00;57.70
19039;DHT22;9652;49.014;12.052;2024-03-08T11:46:32;13.00;57.20
19039;DHT22;9652;49.014;12.052;2024-03-08T11:49:00;13.10;57.60
19039;DHT22;9652;49.014;12.052;2024-03-08T11:51:27;13.10;57.50
19039;DHT22;9652;49.014;12.052;2024-03-08T11:53:57;13.20;57.30
19039;DHT22;9652;49.014;12.052;2024-03-08T11:56:24;13.30;57.30
19039;DHT22;9652;49.014;12.052;2024-03-08T11:58:53;13.30;57.20
19039;DHT22;9652;49.014;12.052;2024-03-08T12:01:23;13.40;57.10
19039;DHT22;9652;49.014;12.052;2024-03-08T12:03:53;13.50;57.10
19039;DHT22;9652;49.014;12.052;2024-03-08T12:06:21;13.50;56.70
19039;DHT22;9652;49.014;12.052;2024-03-08T12:08:48;13.50;56.80
19039;DHT22;9652;49.014;12.052;2024-03-08T12:11:18;13.50;56.70
19039;DHT22;9652;49.014;12.052;2024-03-08T12:13:49;13.60;56.50
19039;DHT22;9652;49.014;12.052;2024-03-08T12:16:17;13.70;56.50
19039;DHT22;9652;49.014;12.052;2024-03-08T12:18:45;13.70;56.50
19039;DHT22;9652;49.014;12.052;2024-03-08T12:21:12;13.70;56.20
19039;DHT22;9652;49.014;12.052;2024-03-08T12:23:44;13.80;56.10
19039;DHT22;9652;49.014;12.052;2024-03-08T12:26:12;13.80;56.10
19039;DHT22;9652;49.014;12.052;2024-03-08T12:28:43;13.90;56.20
19039;DHT22;9652;49.014;12.052;2024-03-08T12:31:13;13.90;56.10
19039;DHT22;9652;49.014;12.052;2024-03-08T12:33:48;13.90;56.10
19039;DHT22;9652;49.014;12.052;2024-03-08T12:36:17;14.00;55.80
19039;DHT22;9652;49.014;12.052;2024-03-08T12:38:45;14.00;55.90
19039;DHT22;9652;49.014;12.052;2024-03-08T12:41:13;14.00;55.60
19039;DHT22;9652;49.014;12.052;2024-03-08T12:43:42;14.10;55.60
19039;DHT22;9652;49.014;12.052;2024-03-08T12:46:14;14.10;55.50
19039;DHT22;9652;49.014;12.052;2024-03-08T12:48:42;14.10;55.40
19039;DHT22;9652;49.014;12.052;2024-03-08T12:51:12;14.20;55.30
19039;DHT22;9652;49.014;12.052;2024-03-08T12:53:41;14.20;55.10
19039;DHT22;9652;49.014;12.052;2024-03-08T12:56:09;14.20;55.10
19039;DHT22;9652;49.014;12.052;2024-03-08T12:58:37;14.30;55.10
19039;DHT22;9652;49.014;12.052;2024-03-08T13:01:07;14.30;54.90
19039;DHT22;9652;49.014;12.052;2024-03-08T13:03:34;14.40;54.80
19039;DHT22;9652;49.014;12.052;2024-03-08T13:06:03;14.40;54.80
19039;DHT22;9652;49.014;12.052;2024-03-08T13:08:34;14.40;54.50
19039;DHT22;9652;49.014;12.052;2024-03-08T13:11:04;14.40;54.20
19039;DHT22;9652;49.014;12.052;2024-03-08T13:13:32;14.50;54.30
19039;DHT22;9652;49.014;12.052;2024-03-08T13:16:01;14.50;54.10
19039;DHT22;9652;49.014;12.052;2024-03-08T13:18:29;14.50;54.00
19039;DHT22;9652;49.014;12.052;2024-03-08T13:20:56;14.60;53.80
19039;DHT22;9652;49.014;12.052;2024-03-08T13:23:24;14.50;53.70
19039;DHT22;9652;49.014;12.052;2024-03-08T13:25:51;14.50;53.70
19039;DHT22;9652;49.014;12.052;2024-03-08T13:28:18;14.50;53.60
19039;DHT22;9652;49.014;12.052;2024-03-08T13:30:48;14.60;54.10
19039;DHT22;9652;49.014;12.052;2024-03-08T13:33:15;14.60;53.40
19039;DHT22;9652;49.014;12.052;2024-03-08T13:35:44;14.60;53.20
19039;DHT22;9652;49.014;12.052;2024-03-08T13:38:12;14.60;53.00
19039;DHT22;9652;49.014;12.052;2024-03-08T13:40:40;14.60;52.90
19039;DHT22;9652;49.014;12.052;2024-03-08T13:43:07;14.70;52.60
19039;DHT22;9652;49.014;12.052;2024-03-08T13:45:35;14.70;52.50
19039;DHT22;9652;49.014;12.052;2024-03-08T13:48:07;14.70;52.60
19039;DHT22;9652;49.014;12.052;2024-03-08T13:50:38;14.70;52.40
19039;DHT22;9652;49.014;12.052;2024-03-08T13:53:06;14.80;52.30
19039;DHT22;9652;49.014;12.052;2024-03-08T13:55:35;14.70;52.20
19039;DHT22;9652;49.014;12.052;2024-03-08T13:58:02;14.80;52.20
19039;DHT22;9652;49.014;12.052;2024-03-08T14:00:35;14.80;52.00
19039;DHT22;9652;49.014;12.052;2024-03-08T14:03:02;14.80;52.00
19039;DHT22;9652;49.014;12.052;2024-03-08T14:05:33;14.80;52.00
19039;DHT22;9652;49.014;12.052;2024-03-08T14:08:01;14.90;51.60
19039;DHT22;9652;49.014;12.052;2024-03-08T14:10:31;14.90;51.70
19039;DHT22;9652;49.014;12.052;2024-03-08T14:12:58;14.90;51.60
19039;DHT22;9652;49.014;12.052;2024-03-08T14:15:25;15.00;51.60
19039;DHT22;9652;49.014;12.052;2024-03-08T14:17:53;15.00;51.50
19039;DHT22;9652;49.014;12.052;2024-03-08T14:20:21;14.90;51.30
19039;DHT22;9652;49.014;12.052;2024-03-08T14:22:51;15.00;51.40
19039;DHT22;9652;49.014;12.052;2024-03-08T14:25:18;14.90;51.10
19039;DHT22;9652;49.014;12.052;2024-03-08T14:27:47;14.90;51.60
19039;DHT22;9652;49.014;12.052;2024-03-08T14:30:15;14.90;51.10
19039;DHT22;9652;49.014;12.052;2024-03-08T14:32:57;14.90;51.30
19039;DHT22;9652;49.014;12.052;2024-03-08T14:35:25;14.90;51.60
19039;DHT22;9652;49.014;12.052;2024-03-08T14:37:52;15.00;51.70
19039;DHT22;9652;49.014;12.052;2024-03-08T14:40:19;15.00;51.60
19039;DHT22;9652;49.014;12.052;2024-03-08T14:42:49;15.10;51.60
19039;DHT22;9652;49.014;12.052;2024-03-08T14:45:16;15.10;51.30
19039;DHT22;9652;49.014;12.052;2024-03-08T14:47:45;15.20;51.50
19039;DHT22;9652;49.014;12.052;2024-03-08T14:50:16;15.30;51.30
19039;DHT22;9652;49.014;12.052;2024-03-08T14:52:43;15.30;51.10
19039;DHT22;9652;49.014;12.052;2024-03-08T14:55:12;15.40;50.90
19039;DHT22;9652;49.014;12.052;2024-03-08T14:57:40;15.40;50.80
19039;DHT22;9652;49.014;12.052;2024-03-08T15:00:09;15.40;50.50
19039;DHT22;9652;49.014;12.052;2024-03-08T15:02:42;15.40;50.10
19039;DHT22;9652;49.014;12.052;2024-03-08T15:05:10;15.50;50.50
19039;DHT22;9652;49.014;12.052;2024-03-08T15:07:38;15.50;50.60
19039;DHT22;9652;49.014;12.052;2024-03-08T15:10:07;15.60;50.60
19039;DHT22;9652;49.014;12.052;2024-03-08T15:12:37;15.60;50.30
19039;DHT22;9652;49.014;12.052;2024-03-08T15:15:07;15.70;50.40
19039;DHT22;9652;49.014;12.052;2024-03-08T15:17:36;15.70;50.20
19039;DHT22;9652;49.014;12.052;2024-03-08T15:20:06;15.80;50.30
19039;DHT22;9652;49.014;12.052;2024-03-08T15:22:43;15.80;50.10
19039;DHT22;9652;49.014;12.052;2024-03-08T15:25:13;15.90;50.10
19039;DHT22;9652;49.014;12.052;2024-03-08T15:27:46;15.90;49.90
19039;DHT22;9652;49.014;12.052;2024-03-08T15:30:15;15.90;49.80
19039;DHT22;9652;49.014;12.052;2024-03-08T15:32:44;16.00;49.60
19039;DHT22;9652;49.014;12.052;2024-03-08T15:35:13;16.00;49.60
19039;DHT22;9652;49.014;12.052;2024-03-08T15:37:42;16.00;49.60
19039;DHT22;9652;49.014;12.052;2024-03-08T15:40:11;16.00;49.50
19039;DHT22;9652;49.014;12.052;2024-03-08T15:42:54;16.00;49.20
19039;DHT22;9652;49.014;12.052;2024-03-08T15:45:24;16.00;48.80
19039;DHT22;9652;49.014;12.052;2024-03-08T15:47:52;16.00;48.30
19039;DHT22;9652;49.014;12.052;2024-03-08T15:50:20;15.90;48.20
19039;DHT22;9652;49.014;12.052;2024-03-08T15:52:49;15.80;48.10